sensor_id;sensor_type;location;lat;lon;timestamp;temperature;humidity
15900;DHT22;8048;50.644;6.184;2022-10-04T00:01:24;7.60;99.90
15900;DHT22;8048;50.644;6.184;2022-10-04T00:04:18;7.60;99.90
15900;DHT22;8048;50.644;6.184;2022-10-04T00:06:50;7.60;99.90
15900;DHT22;8048;50.644;6.184;2022-10-04T00:09:22;7.60;99.90
15900;DHT22;8048;50.644;6.184;2022-10-04T00:11:50;7.60;99.90
15900;DHT22;8048;50.644;6.184;2022-10-04T00:14:28;7.70;99.90
15900;DHT22;8048;50.644;6.184;2022-10-04T00:16:55;7.70;99.90
15900;DHT22;8048;50.644;6.184;2022-10-04T00:19:39;7.60;99.90
15900;DHT22;8048;50.644;6.184;2022-10-04T00:24:35;7.60;99.90
15900;DHT22;8048;50.644;6.184;2022-10-04T00:27:40;7.60;99.90
15900;DHT22;8048;50.644;6.184;2022-10-04T00:34:57;7.60;99.90
15900;DHT22;8048;50.644;6.184;2022-10-04T00:37:24;7.60;99.90
15900;DHT22;8048;50.644;6.184;2022-10-04T00:40:10;7.70;99.90
15900;DHT22;8048;50.644;6.184;2022-10-04T00:42:47;7.70;99.90
15900;DHT22;8048;50.644;6.184;2022-10-04T00:45:29;7.70;99.90
15900;DHT22;8048;50.644;6.184;2022-10-04T00:47:59;7.70;99.90
15900;DHT22;8048;50.644;6.184;2022-10-04T00:50:32;7.70;99.90
15900;DHT22;8048;50.644;6.184;2022-10-04T00:53:00;7.60;99.90
15900;DHT22;8048;50.644;6.184;2022-10-04T00:55:38;7.70;99.90
15900;DHT22;8048;50.644;6.184;2022-10-04T00:58:13;7.70;99.90
15900;DHT22;8048;50.644;6.184;2022-10-04T01:00:42;7.80;99.90
15900;DHT22;8048;50.644;6.184;2022-10-04T01:03:17;7.80;99.90
15900;DHT22;8048;50.644;6.184;2022-10-04T01:05:48;7.80;99.90
15900;DHT22;8048;50.644;6.184;2022-10-04T01:08:21;7.80;99.90
15900;DHT22;8048;50.644;6.184;2022-10-04T01:11:02;7.90;99.90
15900;DHT22;8048;50.644;6.184;2022-10-04T01:13:38;7.90;99.90
15900;DHT22;8048;50.644;6.184;2022-10-04T01:16:12;7.90;99.90
15900;DHT22;8048;50.644;6.184;2022-10-04T01:18:38;8.00;99.90
15900;DHT22;8048;50.644;6.184;2022-10-04T01:24:35;8.00;99.90
15900;DHT22;8048;50.644;6.184;2022-10-04T01:26:41;8.00;99.90
15900;DHT22;8048;50.644;6.184;2022-10-04T01:29:23;8.00;99.90
15900;DHT22;8048;50.644;6.184;2022-10-04T01:31:51;8.10;99.90
15900;DHT22;8048;50.644;6.184;2022-10-04T01:34:23;8.10;99.90
15900;DHT22;8048;50.644;6.184;2022-10-04T01:36:51;8.10;99.90
15900;DHT22;8048;50.644;6.184;2022-10-04T01:39:20;8.10;99.90
15900;DHT22;8048;50.644;6.184;2022-10-04T01:42:41;8.20;99.90
15900;DHT22;8048;50.644;6.184;2022-10-04T01:45:28;8.20;99.90
15900;DHT22;8048;50.644;6.184;2022-10-04T01:48:02;8.20;99.90
15900;DHT22;8048;50.644;6.184;2022-10-04T01:50:36;8.20;99.90
15900;DHT22;8048;50.644;6.184;2022-10-04T01:53:18;8.20;99.90
15900;DHT22;8048;50.644;6.184;2022-10-04T01:55:49;8.20;99.90
15900;DHT22;8048;50.644;6.184;2022-10-04T01:58:22;8.20;99.90
15900;DHT22;8048;50.644;6.184;2022-10-04T02:00:56;8.20;99.90
15900;DHT22;8048;50.644;6.184;2022-10-04T02:03:36;8.20;99.90
15900;DHT22;8048;50.644;6.184;2022-10-04T02:06:06;8.20;99.90
15900;DHT22;8048;50.644;6.184;2022-10-04T02:08:34;8.20;99.90
15900;DHT22;8048;50.644;6.184;2022-10-04T02:11:03;8.10;99.90
15900;DHT22;8048;50.644;6.184;2022-10-04T02:13:36;8.10;99.90
15900;DHT22;8048;50.644;6.184;2022-10-04T02:16:03;8.20;99.90
15900;DHT22;8048;50.644;6.184;2022-10-04T02:18:38;8.10;99.90
15900;DHT22;8048;50.644;6.184;2022-10-04T02:21:06;8.10;99.90
15900;DHT22;8048;50.644;6.184;2022-10-04T02:23:33;8.10;99.90
15900;DHT22;8048;50.644;6.184;2022-10-04T02:26:08;8.10;99.90
15900;DHT22;8048;50.644;6.184;2022-10-04T02:28:35;8.00;99.90
15900;DHT22;8048;50.644;6.184;2022-10-04T02:31:01;8.00;99.90
15900;DHT22;8048;50.644;6.184;2022-10-04T02:33:49;8.00;99.90
15900;DHT22;8048;50.644;6.184;2022-10-04T02:36:16;8.00;99.90
15900;DHT22;8048;50.644;6.184;2022-10-04T02:44:35;7.90;99.90
15900;DHT22;8048;50.644;6.184;2022-10-04T02:47:11;7.90;99.90
15900;DHT22;8048;50.644;6.184;2022-10-04T02:49:59;7.90;99.90
15900;DHT22;8048;50.644;6.184;2022-10-04T02:53:40;7.80;99.90
15900;DHT22;8048;50.644;6.184;2022-10-04T02:55:47;7.70;99.90
15900;DHT22;8048;50.644;6.184;2022-10-04T02:58:16;7.70;99.90
15900;DHT22;8048;50.644;6.184;2022-10-04T03:00:48;7.70;99.90
15900;DHT22;8048;50.644;6.184;2022-10-04T03:03:29;7.70;99.90
15900;DHT22;8048;50.644;6.184;2022-10-04T03:06:03;7.70;99.90
15900;DHT22;8048;50.644;6.184;2022-10-04T03:08:33;7.70;99.90
15900;DHT22;8048;50.644;6.184;2022-10-04T03:11:02;7.70;99.90
15900;DHT22;8048;50.644;6.184;2022-10-04T03:13:29;7.70;99.90
15900;DHT22;8048;50.644;6.184;2022-10-04T03:15:55;7.60;99.90
15900;DHT22;8048;50.644;6.184;2022-10-04T03:18:21;7.60;99.90
15900;DHT22;8048;50.644;6.184;2022-10-04T03:20:47;7.60;99.90
15900;DHT22;8048;50.644;6.184;2022-10-04T03:23:15;7.60;99.90
15900;DHT22;8048;50.644;6.184;2022-10-04T03:26:02;7.60;99.90
15900;DHT22;8048;50.644;6.184;2022-10-04T03:28:28;7.60;99.90
15900;DHT22;8048;50.644;6.184;2022-10-04T03:30:54;7.60;99.90
15900;DHT22;8048;50.644;6.184;2022-10-04T03:33:24;7.60;99.90
15900;DHT22;8048;50.644;6.184;2022-10-04T03:35:55;7.50;99.90
15900;DHT22;8048;50.644;6.184;2022-10-04T03:38:22;7.50;99.90
15900;DHT22;8048;50.644;6.184;2022-10-04T03:40:54;7.50;99.90
15900;DHT22;8048;50.644;6.184;2022-10-04T03:43:24;7.50;99.90
15900;DHT22;8048;50.644;6.184;2022-10-04T03:45:51;7.40;99.90
15900;DHT22;8048;50.644;6.184;2022-10-04T03:48:24;7.40;99.90
15900;DHT22;8048;50.644;6.184;2022-10-04T03:50:52;7.40;99.90
15900;DHT22;8048;50.644;6.184;2022-10-04T03:53:27;7.40;99.90
15900;DHT22;8048;50.644;6.184;2022-10-04T03:55:53;7.40;99.90
15900;DHT22;8048;50.644;6.184;2022-10-04T03:58:19;7.30;99.90
15900;DHT22;8048;50.644;6.184;2022-10-04T04:03:21;7.30;99.90
15900;DHT22;8048;50.644;6.184;2022-10-04T04:05:51;7.30;99.90
15900;DHT22;8048;50.644;6.184;2022-10-04T04:08:28;7.30;99.90
15900;DHT22;8048;50.644;6.184;2022-10-04T04:10:58;7.30;99.90
15900;DHT22;8048;50.644;6.184;2022-10-04T04:13:32;7.20;99.90
15900;DHT22;8048;50.644;6.184;2022-10-04T04:16:01;7.20;99.90
15900;DHT22;8048;50.644;6.184;2022-10-04T04:18:34;7.20;99.90
15900;DHT22;8048;50.644;6.184;2022-10-04T04:21:03;7.10;99.90
15900;DHT22;8048;50.644;6.184;2022-10-04T04:28:44;7.10;99.90
15900;DHT22;8048;50.644;6.184;2022-10-04T04:31:19;7.00;99.90
15900;DHT22;8048;50.644;6.184;2022-10-04T04:34:00;7.00;99.90
15900;DHT22;8048;50.644;6.184;2022-10-04T04:36:28;7.00;99.90
15900;DHT22;8048;50.644;6.184;2022-10-04T04:39:06;6.90;99.90
15900;DHT22;8048;50.644;6.184;2022-10-04T04:41:49;6.90;99.90
15900;DHT22;8048;50.644;6.184;2022-10-04T04:44:16;6.90;99.90
15900;DHT22;8048;50.644;6.184;2022-10-04T04:46:44;6.90;99.90
15900;DHT22;8048;50.644;6.184;2022-10-04T04:49:10;6.90;99.90
15900;DHT22;8048;50.644;6.184;2022-10-04T04:51:39;6.90;99.90
15900;DHT22;8048;50.644;6.184;2022-10-04T04:54:06;6.90;99.90
15900;DHT22;8048;50.644;6.184;2022-10-04T04:56:32;6.90;99.90
15900;DHT22;8048;50.644;6.184;2022-10-04T04:59:02;6.90;99.90
15900;DHT22;8048;50.644;6.184;2022-10-04T05:01:43;6.90;99.90
15900;DHT22;8048;50.644;6.184;2022-10-04T05:06:38;6.90;99.90
15900;DHT22;8048;50.644;6.184;2022-10-04T05:09:05;6.80;99.90
15900;DHT22;8048;50.644;6.184;2022-10-04T05:11:34;6.90;99.90
15900;DHT22;8048;50.644;6.184;2022-10-04T05:14:01;6.80;99.90
15900;DHT22;8048;50.644;6.184;2022-10-04T05:16:39;6.90;99.90
15900;DHT22;8048;50.644;6.184;2022-10-04T05:19:22;6.80;99.90
15900;DHT22;8048;50.644;6.184;2022-10-04T05:21:51;6.80;99.90
15900;DHT22;8048;50.644;6.184;2022-10-04T05:26:54;6.80;99.90
15900;DHT22;8048;50.644;6.184;2022-10-04T05:29:25;6.80;99.90
15900;DHT22;8048;50.644;6.184;2022-10-04T05:31:59;6.90;99.90
15900;DHT22;8048;50.644;6.184;2022-10-04T05:34:31;6.90;99.90
15900;DHT22;8048;50.644;6.184;2022-10-04T05:40:03;6.90;99.90
15900;DHT22;8048;50.644;6.184;2022-10-04T05:42:35;7.00;99.90
15900;DHT22;8048;50.644;6.184;2022-10-04T05:45:16;7.00;99.90
15900;DHT22;8048;50.644;6.184;2022-10-04T05:47:42;7.00;99.90
15900;DHT22;8048;50.644;6.184;2022-10-04T05:50:15;7.00;99.90
15900;DHT22;8048;50.644;6.184;2022-10-04T05:52:42;6.90;99.90
15900;DHT22;8048;50.644;6.184;2022-10-04T05:55:27;7.00;99.90
15900;DHT22;8048;50.644;6.184;2022-10-04T06:03:38;7.00;99.90
15900;DHT22;8048;50.644;6.184;2022-10-04T06:06:21;7.00;99.90
15900;DHT22;8048;50.644;6.184;2022-10-04T06:09:35;7.00;99.90
15900;DHT22;8048;50.644;6.184;2022-10-04T06:12:04;7.10;99.90
15900;DHT22;8048;50.644;6.184;2022-10-04T06:14:45;7.20;99.90
15900;DHT22;8048;50.644;6.184;2022-10-04T06:17:47;7.30;99.90
15900;DHT22;8048;50.644;6.184;2022-10-04T06:23:00;7.50;99.90
15900;DHT22;8048;50.644;6.184;2022-10-04T06:25:32;7.60;99.90
15900;DHT22;8048;50.644;6.184;2022-10-04T06:28:15;7.60;99.90
15900;DHT22;8048;50.644;6.184;2022-10-04T06:36:23;7.80;99.90
15900;DHT22;8048;50.644;6.184;2022-10-04T06:45:00;8.00;99.90
15900;DHT22;8048;50.644;6.184;2022-10-04T07:01:31;8.60;99.90
15900;DHT22;8048;50.644;6.184;2022-10-04T07:06:52;8.80;99.90
15900;DHT22;8048;50.644;6.184;2022-10-04T07:09:42;8.90;99.90
15900;DHT22;8048;50.644;6.184;2022-10-04T07:12:10;8.90;99.90
15900;DHT22;8048;50.644;6.184;2022-10-04T07:14:45;9.00;99.90
15900;DHT22;8048;50.644;6.184;2022-10-04T07:17:18;9.10;99.90
15900;DHT22;8048;50.644;6.184;2022-10-04T07:19:49;9.30;99.90
15900;DHT22;8048;50.644;6.184;2022-10-04T07:22:41;9.30;99.90
15900;DHT22;8048;50.644;6.184;2022-10-04T07:27:50;9.50;99.90
15900;DHT22;8048;50.644;6.184;2022-10-04T07:30:44;9.50;99.90
15900;DHT22;8048;50.644;6.184;2022-10-04T07:33:16;9.70;99.90
15900;DHT22;8048;50.644;6.184;2022-10-04T07:35:49;9.80;99.90
15900;DHT22;8048;50.644;6.184;2022-10-04T07:38:28;9.90;99.90
15900;DHT22;8048;50.644;6.184;2022-10-04T07:41:09;10.10;99.90
15900;DHT22;8048;50.644;6.184;2022-10-04T07:44:00;10.20;99.90
15900;DHT22;8048;50.644;6.184;2022-10-04T07:49:19;10.40;99.90
15900;DHT22;8048;50.644;6.184;2022-10-04T07:52:04;10.50;99.90
15900;DHT22;8048;50.644;6.184;2022-10-04T07:55:14;10.60;99.90
15900;DHT22;8048;50.644;6.184;2022-10-04T08:00:17;10.80;99.90
15900;DHT22;8048;50.644;6.184;2022-10-04T08:05:41;11.10;99.90
15900;DHT22;8048;50.644;6.184;2022-10-04T08:17:03;11.70;99.90
15900;DHT22;8048;50.644;6.184;2022-10-04T08:19:43;11.90;99.90
15900;DHT22;8048;50.644;6.184;2022-10-04T08:22:18;11.90;99.90
15900;DHT22;8048;50.644;6.184;2022-10-04T08:25:10;12.00;99.90
15900;DHT22;8048;50.644;6.184;2022-10-04T08:31:08;12.30;99.90
15900;DHT22;8048;50.644;6.184;2022-10-04T08:33:42;12.40;99.90
15900;DHT22;8048;50.644;6.184;2022-10-04T08:47:44;13.80;98.70
15900;DHT22;8048;50.644;6.184;2022-10-04T09:02:03;15.60;96.70
15900;DHT22;8048;50.644;6.184;2022-10-04T09:22:15;17.80;88.50
15900;DHT22;8048;50.644;6.184;2022-10-04T09:30:18;18.80;90.60
15900;DHT22;8048;50.644;6.184;2022-10-04T09:32:49;19.20;84.30
15900;DHT22;8048;50.644;6.184;2022-10-04T09:35:39;19.50;84.00
15900;DHT22;8048;50.644;6.184;2022-10-04T09:47:07;20.20;82.10
15900;DHT22;8048;50.644;6.184;2022-10-04T09:52:28;21.10;74.40
15900;DHT22;8048;50.644;6.184;2022-10-04T09:55:20;21.30;73.60
15900;DHT22;8048;50.644;6.184;2022-10-04T09:58:11;21.30;70.60
15900;DHT22;8048;50.644;6.184;2022-10-04T10:11:34;22.30;69.90
15900;DHT22;8048;50.644;6.184;2022-10-04T10:14:47;22.70;68.60
15900;DHT22;8048;50.644;6.184;2022-10-04T10:17:27;23.20;69.60
15900;DHT22;8048;50.644;6.184;2022-10-04T10:23:13;24.10;70.60
15900;DHT22;8048;50.644;6.184;2022-10-04T10:26:18;24.50;64.80
15900;DHT22;8048;50.644;6.184;2022-10-04T10:32:18;25.10;60.70
15900;DHT22;8048;50.644;6.184;2022-10-04T10:43:58;25.80;57.50
15900;DHT22;8048;50.644;6.184;2022-10-04T10:47:13;26.00;56.80
15900;DHT22;8048;50.644;6.184;2022-10-04T10:50:06;26.20;58.60
15900;DHT22;8048;50.644;6.184;2022-10-04T10:55:29;26.40;55.20
15900;DHT22;8048;50.644;6.184;2022-10-04T11:11:49;27.10;58.10
15900;DHT22;8048;50.644;6.184;2022-10-04T11:25:26;27.60;56.50
15900;DHT22;8048;50.644;6.184;2022-10-04T11:31:29;28.00;53.10
15900;DHT22;8048;50.644;6.184;2022-10-04T11:50:08;28.10;50.80
15900;DHT22;8048;50.644;6.184;2022-10-04T12:06:51;29.30;52.20
15900;DHT22;8048;50.644;6.184;2022-10-04T12:09:39;29.50;51.90
15900;DHT22;8048;50.644;6.184;2022-10-04T12:12:32;29.60;51.30
15900;DHT22;8048;50.644;6.184;2022-10-04T12:26:58;30.70;48.60
15900;DHT22;8048;50.644;6.184;2022-10-04T12:32:09;30.60;51.30
15900;DHT22;8048;50.644;6.184;2022-10-04T12:43:34;30.10;51.90
15900;DHT22;8048;50.644;6.184;2022-10-04T12:52:18;30.00;49.40
15900;DHT22;8048;50.644;6.184;2022-10-04T12:54:58;29.90;48.20
15900;DHT22;8048;50.644;6.184;2022-10-04T13:00:19;30.10;49.60
15900;DHT22;8048;50.644;6.184;2022-10-04T13:08:25;30.30;49.40
15900;DHT22;8048;50.644;6.184;2022-10-04T13:19:22;29.40;50.90
15900;DHT22;8048;50.644;6.184;2022-10-04T13:25:08;29.70;50.40
15900;DHT22;8048;50.644;6.184;2022-10-04T13:30:20;29.90;48.40
15900;DHT22;8048;50.644;6.184;2022-10-04T13:49:57;30.10;48.40
15900;DHT22;8048;50.644;6.184;2022-10-04T13:52:55;29.90;49.60
15900;DHT22;8048;50.644;6.184;2022-10-04T13:56:02;29.80;50.70
15900;DHT22;8048;50.644;6.184;2022-10-04T14:05:12;30.10;50.30
15900;DHT22;8048;50.644;6.184;2022-10-04T14:07:49;30.40;51.90
15900;DHT22;8048;50.644;6.184;2022-10-04T14:23:37;29.80;50.10
15900;DHT22;8048;50.644;6.184;2022-10-04T14:29:07;29.80;49.50
15900;DHT22;8048;50.644;6.184;2022-10-04T14:46:10;28.80;50.00
15900;DHT22;8048;50.644;6.184;2022-10-04T15:00:18;28.40;50.40
15900;DHT22;8048;50.644;6.184;2022-10-04T15:03:10;27.80;49.90
15900;DHT22;8048;50.644;6.184;2022-10-04T15:06:01;27.40;52.10
15900;DHT22;8048;50.644;6.184;2022-10-04T15:14:28;25.80;51.20
15900;DHT22;8048;50.644;6.184;2022-10-04T15:16:55;25.70;54.10
15900;DHT22;8048;50.644;6.184;2022-10-04T15:19:30;25.40;54.40
15900;DHT22;8048;50.644;6.184;2022-10-04T15:38:28;23.80;58.10
15900;DHT22;8048;50.644;6.184;2022-10-04T15:46:49;23.30;58.30
15900;DHT22;8048;50.644;6.184;2022-10-04T15:57:36;22.30;60.50
15900;DHT22;8048;50.644;6.184;2022-10-04T16:00:24;22.30;64.70
15900;DHT22;8048;50.644;6.184;2022-10-04T16:03:01;22.10;68.20
15900;DHT22;8048;50.644;6.184;2022-10-04T16:05:41;21.90;69.80
15900;DHT22;8048;50.644;6.184;2022-10-04T16:11:04;21.60;72.50
15900;DHT22;8048;50.644;6.184;2022-10-04T16:14:02;21.40;71.70
15900;DHT22;8048;50.644;6.184;2022-10-04T16:19:41;21.00;72.70
15900;DHT22;8048;50.644;6.184;2022-10-04T16:22:28;20.80;73.90
15900;DHT22;8048;50.644;6.184;2022-10-04T16:31:16;20.30;78.50
15900;DHT22;8048;50.644;6.184;2022-10-04T16:36:48;19.80;82.70
15900;DHT22;8048;50.644;6.184;2022-10-04T16:39:38;19.70;83.70
15900;DHT22;8048;50.644;6.184;2022-10-04T16:47:55;19.10;84.10
15900;DHT22;8048;50.644;6.184;2022-10-04T16:51:25;18.90;83.20
15900;DHT22;8048;50.644;6.184;2022-10-04T16:56:23;18.50;86.30
15900;DHT22;8048;50.644;6.184;2022-10-04T16:59:04;18.40;88.20
15900;DHT22;8048;50.644;6.184;2022-10-04T17:12:17;17.70;91.20
15900;DHT22;8048;50.644;6.184;2022-10-04T17:15:06;17.50;91.40
15900;DHT22;8048;50.644;6.184;2022-10-04T17:26:00;16.90;93.20
15900;DHT22;8048;50.644;6.184;2022-10-04T17:31:08;16.60;93.10
15900;DHT22;8048;50.644;6.184;2022-10-04T17:36:43;16.40;93.70
15900;DHT22;8048;50.644;6.184;2022-10-04T17:44:41;16.10;94.40
15900;DHT22;8048;50.644;6.184;2022-10-04T17:47:18;16.00;94.90
15900;DHT22;8048;50.644;6.184;2022-10-04T17:49:58;15.80;95.40
15900;DHT22;8048;50.644;6.184;2022-10-04T17:52:55;15.70;95.60
15900;DHT22;8048;50.644;6.184;2022-10-04T17:56:02;15.70;95.90
15900;DHT22;8048;50.644;6.184;2022-10-04T17:58:43;15.60;96.20
15900;DHT22;8048;50.644;6.184;2022-10-04T18:01:46;15.60;96.00
15900;DHT22;8048;50.644;6.184;2022-10-04T18:06:40;15.40;96.20
15900;DHT22;8048;50.644;6.184;2022-10-04T18:09:21;15.20;96.40
15900;DHT22;8048;50.644;6.184;2022-10-04T18:12:22;15.00;96.70
15900;DHT22;8048;50.644;6.184;2022-10-04T18:15:14;14.80;96.90
15900;DHT22;8048;50.644;6.184;2022-10-04T18:17:45;14.70;97.20
15900;DHT22;8048;50.644;6.184;2022-10-04T18:20:33;14.60;97.20
15900;DHT22;8048;50.644;6.184;2022-10-04T18:23:18;14.40;97.10
15900;DHT22;8048;50.644;6.184;2022-10-04T18:25:49;14.30;97.60
15900;DHT22;8048;50.644;6.184;2022-10-04T18:28:19;14.20;97.50
15900;DHT22;8048;50.644;6.184;2022-10-04T18:33:20;14.00;98.10
15900;DHT22;8048;50.644;6.184;2022-10-04T18:38:35;13.90;98.20
15900;DHT22;8048;50.644;6.184;2022-10-04T18:41:11;13.80;98.20
15900;DHT22;8048;50.644;6.184;2022-10-04T18:43:50;13.70;98.40
15900;DHT22;8048;50.644;6.184;2022-10-04T18:46:17;13.60;98.60
15900;DHT22;8048;50.644;6.184;2022-10-04T18:59:51;13.10;98.40
15900;DHT22;8048;50.644;6.184;2022-10-04T19:02:39;13.00;98.20
15900;DHT22;8048;50.644;6.184;2022-10-04T19:05:33;13.00;98.50
15900;DHT22;8048;50.644;6.184;2022-10-04T19:08:28;12.90;98.90
15900;DHT22;8048;50.644;6.184;2022-10-04T19:11:11;13.00;99.20
15900;DHT22;8048;50.644;6.184;2022-10-04T19:16:13;12.90;99.60
15900;DHT22;8048;50.644;6.184;2022-10-04T19:19:01;12.90;99.10
15900;DHT22;8048;50.644;6.184;2022-10-04T19:26:49;12.70;99.70
15900;DHT22;8048;50.644;6.184;2022-10-04T19:29:29;12.60;99.40
15900;DHT22;8048;50.644;6.184;2022-10-04T19:32:07;12.60;99.90
15900;DHT22;8048;50.644;6.184;2022-10-04T19:35:06;12.60;99.90
15900;DHT22;8048;50.644;6.184;2022-10-04T19:37:46;12.50;99.90
15900;DHT22;8048;50.644;6.184;2022-10-04T19:40:30;12.60;99.90
15900;DHT22;8048;50.644;6.184;2022-10-04T19:43:06;12.60;99.90
15900;DHT22;8048;50.644;6.184;2022-10-04T19:48:24;12.70;99.90
15900;DHT22;8048;50.644;6.184;2022-10-04T19:50:58;12.70;99.90
15900;DHT22;8048;50.644;6.184;2022-10-04T19:53:40;12.80;99.90
15900;DHT22;8048;50.644;6.184;2022-10-04T19:56:19;12.80;99.90
15900;DHT22;8048;50.644;6.184;2022-10-04T19:59:04;12.80;99.90
15900;DHT22;8048;50.644;6.184;2022-10-04T20:01:32;12.80;99.90
15900;DHT22;8048;50.644;6.184;2022-10-04T20:03:59;12.80;99.90
15900;DHT22;8048;50.644;6.184;2022-10-04T20:06:55;12.80;99.90
15900;DHT22;8048;50.644;6.184;2022-10-04T20:10:02;12.80;99.90
15900;DHT22;8048;50.644;6.184;2022-10-04T20:12:38;12.90;99.90
15900;DHT22;8048;50.644;6.184;2022-10-04T20:15:17;12.90;99.90
15900;DHT22;8048;50.644;6.184;2022-10-04T20:17:46;12.90;99.90
15900;DHT22;8048;50.644;6.184;2022-10-04T20:22:59;12.90;99.90
15900;DHT22;8048;50.644;6.184;2022-10-04T20:30:58;12.80;99.90
15900;DHT22;8048;50.644;6.184;2022-10-04T20:36:02;12.80;99.90
15900;DHT22;8048;50.644;6.184;2022-10-04T20:39:01;12.70;99.90
15900;DHT22;8048;50.644;6.184;2022-10-04T20:43:57;12.60;99.90
15900;DHT22;8048;50.644;6.184;2022-10-04T20:46:27;12.50;99.90
15900;DHT22;8048;50.644;6.184;2022-10-04T20:48:56;12.50;99.90
15900;DHT22;8048;50.644;6.184;2022-10-04T20:51:22;12.60;99.90
15900;DHT22;8048;50.644;6.184;2022-10-04T20:53:49;12.50;99.90
15900;DHT22;8048;50.644;6.184;2022-10-04T20:56:25;12.50;99.90
15900;DHT22;8048;50.644;6.184;2022-10-04T20:58:54;12.40;99.90
15900;DHT22;8048;50.644;6.184;2022-10-04T21:01:21;12.40;99.90
15900;DHT22;8048;50.644;6.184;2022-10-04T21:06:54;12.40;99.90
15900;DHT22;8048;50.644;6.184;2022-10-04T21:09:21;12.40;99.90
15900;DHT22;8048;50.644;6.184;2022-10-04T21:11:49;12.30;99.90
15900;DHT22;8048;50.644;6.184;2022-10-04T21:14:22;12.30;99.90
15900;DHT22;8048;50.644;6.184;2022-10-04T21:16:50;12.40;99.90
15900;DHT22;8048;50.644;6.184;2022-10-04T21:21:57;12.30;99.90
15900;DHT22;8048;50.644;6.184;2022-10-04T21:24:40;12.30;99.90
15900;DHT22;8048;50.644;6.184;2022-10-04T21:27:08;12.30;99.90
15900;DHT22;8048;50.644;6.184;2022-10-04T21:29:38;12.30;99.90
15900;DHT22;8048;50.644;6.184;2022-10-04T21:32:04;12.20;99.90
15900;DHT22;8048;50.644;6.184;2022-10-04T21:34:30;12.30;99.90
15900;DHT22;8048;50.644;6.184;2022-10-04T21:36:56;12.30;99.90
15900;DHT22;8048;50.644;6.184;2022-10-04T21:39:23;12.30;99.90
15900;DHT22;8048;50.644;6.184;2022-10-04T21:41:49;12.20;99.90
15900;DHT22;8048;50.644;6.184;2022-10-04T21:44:15;12.30;99.90
15900;DHT22;8048;50.644;6.184;2022-10-04T21:46:40;12.30;99.90
15900;DHT22;8048;50.644;6.184;2022-10-04T21:49:06;12.30;99.90
15900;DHT22;8048;50.644;6.184;2022-10-04T21:51:31;12.20;99.90
15900;DHT22;8048;50.644;6.184;2022-10-04T21:54:03;12.30;99.90
15900;DHT22;8048;50.644;6.184;2022-10-04T21:56:29;12.30;99.90
15900;DHT22;8048;50.644;6.184;2022-10-04T21:58:55;12.40;99.90
15900;DHT22;8048;50.644;6.184;2022-10-04T22:01:20;12.30;99.90
15900;DHT22;8048;50.644;6.184;2022-10-04T22:03:46;12.30;99.90
15900;DHT22;8048;50.644;6.184;2022-10-04T22:06:11;12.30;99.90
15900;DHT22;8048;50.644;6.184;2022-10-04T22:08:37;12.20;99.90
15900;DHT22;8048;50.644;6.184;2022-10-04T22:11:03;12.20;99.90
15900;DHT22;8048;50.644;6.184;2022-10-04T22:13:28;12.20;99.90
15900;DHT22;8048;50.644;6.184;2022-10-04T22:15:54;12.30;99.90
15900;DHT22;8048;50.644;6.184;2022-10-04T22:18:20;12.30;99.90
15900;DHT22;8048;50.644;6.184;2022-10-04T22:20:45;12.30;99.90
15900;DHT22;8048;50.644;6.184;2022-10-04T22:23:17;12.30;99.90
15900;DHT22;8048;50.644;6.184;2022-10-04T22:25:43;12.30;99.90
15900;DHT22;8048;50.644;6.184;2022-10-04T22:30:48;12.30;99.90
15900;DHT22;8048;50.644;6.184;2022-10-04T22:33:35;12.20;99.90
15900;DHT22;8048;50.644;6.184;2022-10-04T22:38:54;12.10;99.90
15900;DHT22;8048;50.644;6.184;2022-10-04T22:41:21;12.20;99.90
15900;DHT22;8048;50.644;6.184;2022-10-04T22:43:48;12.10;99.90
15900;DHT22;8048;50.644;6.184;2022-10-04T22:46:16;12.20;99.90
15900;DHT22;8048;50.644;6.184;2022-10-04T22:48:44;12.20;99.90
15900;DHT22;8048;50.644;6.184;2022-10-04T22:51:11;12.20;99.90
15900;DHT22;8048;50.644;6.184;2022-10-04T22:53:43;12.20;99.90
15900;DHT22;8048;50.644;6.184;2022-10-04T22:56:11;12.10;99.90
15900;DHT22;8048;50.644;6.184;2022-10-04T22:58:38;12.10;99.90
15900;DHT22;8048;50.644;6.184;2022-10-04T23:01:16;12.10;99.90
15900;DHT22;8048;50.644;6.184;2022-10-04T23:03:47;12.10;99.90
15900;DHT22;8048;50.644;6.184;2022-10-04T23:06:13;12.10;99.90
15900;DHT22;8048;50.644;6.184;2022-10-04T23:08:40;12.10;99.90
15900;DHT22;8048;50.644;6.184;2022-10-04T23:11:07;12.00;99.90
15900;DHT22;8048;50.644;6.184;2022-10-04T23:13:33;12.00;99.90
15900;DHT22;8048;50.644;6.184;2022-10-04T23:16:08;12.00;99.90
15900;DHT22;8048;50.644;6.184;2022-10-04T23:18:34;11.90;99.90
15900;DHT22;8048;50.644;6.184;2022-10-04T23:21:00;11.80;99.90
15900;DHT22;8048;50.644;6.184;2022-10-04T23:23:26;11.80;99.90
15900;DHT22;8048;50.644;6.184;2022-10-04T23:25:53;11.80;99.90
15900;DHT22;8048;50.644;6.184;2022-10-04T23:28:19;11.80;99.90
15900;DHT22;8048;50.644;6.184;2022-10-04T23:30:54;11.70;99.90
15900;DHT22;8048;50.644;6.184;2022-10-04T23:33:22;11.70;99.90
15900;DHT22;8048;50.644;6.184;2022-10-04T23:35:49;11.70;99.90
15900;DHT22;8048;50.644;6.184;2022-10-04T23:38:18;11.70;99.90
15900;DHT22;8048;50.644;6.184;2022-10-04T23:40:44;11.70;99.90
15900;DHT22;8048;50.644;6.184;2022-10-04T23:43:23;11.60;99.90
15900;DHT22;8048;50.644;6.184;2022-10-04T23:45:55;11.60;99.90
15900;DHT22;8048;50.644;6.184;2022-10-04T23:48:25;11.60;99.90
15900;DHT22;8048;50.644;6.184;2022-10-04T23:50:52;11.70;99.90
15900;DHT22;8048;50.644;6.184;2022-10-04T23:53:22;11.70;99.90
15900;DHT22;8048;50.644;6.184;2022-10-04T23:55:48;11.60;99.90
15900;DHT22;8048;50.644;6.184;2022-10-04T23:58:16;11.60;99.90
